createdAt,value
2018-11-05T00:01:08.495Z,24.17
2018-11-05T00:05:10.965Z,21.07
2018-11-05T00:09:13.585Z,23.90
2018-11-05T00:13:17.779Z,23.67
2018-11-05T00:17:20.317Z,25.10
2018-11-05T00:21:22.827Z,25.90
2018-11-05T00:25:25.253Z,23.93
2018-11-05T00:29:27.890Z,23.60
2018-11-05T00:33:30.393Z,23.73
2018-11-05T00:37:32.877Z,24.33
2018-11-05T00:41:36.595Z,23.53
2018-11-05T00:45:39.717Z,22.33
2018-11-05T00:49:42.194Z,23.60
2018-11-05T00:53:44.908Z,24.90
2018-11-05T00:57:47.334Z,22.87
2018-11-05T01:01:49.911Z,25.37
2018-11-05T01:05:52.508Z,23.90
2018-11-05T01:09:54.982Z,22.77
2018-11-05T01:13:57.513Z,22.43
2018-11-05T01:18:00.029Z,22.90
2018-11-05T01:22:02.567Z,24.03
2018-11-05T01:26:05.060Z,22.23
2018-11-05T01:30:09.878Z,19.70
2018-11-05T01:34:12.394Z,21.53
2018-11-05T01:38:14.918Z,20.10
2018-11-05T01:42:17.402Z,19.67
2018-11-05T01:46:19.892Z,20.63
2018-11-05T01:50:22.483Z,21.87
2018-11-05T01:54:24.954Z,20.40
2018-11-05T01:58:27.474Z,19.05
2018-11-05T02:02:29.897Z,19.70
2018-11-05T02:06:32.437Z,19.43
2018-11-05T02:10:35.004Z,20.77
2018-11-05T02:14:37.549Z,19.43
2018-11-05T02:18:40.076Z,19.97
2018-11-05T02:22:42.675Z,21.20
2018-11-05T02:26:45.194Z,22.00
2018-11-05T02:30:47.819Z,21.50
2018-11-05T02:34:50.527Z,20.97
2018-11-05T02:38:53.012Z,19.60
2018-11-05T02:42:55.606Z,19.83
2018-11-05T02:46:58.019Z,22.53
2018-11-05T02:51:00.617Z,20.87
2018-11-05T02:55:03.385Z,22.00
2018-11-05T02:59:05.911Z,21.10
2018-11-05T03:03:08.388Z,20.70
2018-11-05T03:07:11.006Z,20.80
2018-11-05T03:11:13.522Z,20.87
2018-11-05T03:15:17.161Z,21.97
2018-11-05T03:19:19.646Z,20.83
2018-11-05T03:23:22.122Z,22.07
2018-11-05T03:27:24.689Z,20.53
2018-11-05T03:31:27.228Z,22.27
2018-11-05T03:35:29.662Z,21.43
2018-11-05T03:39:32.179Z,16.87
2018-11-05T03:43:34.696Z,18.53
2018-11-05T03:47:37.346Z,18.67
2018-11-05T03:51:39.887Z,21.00
2018-11-05T03:55:42.517Z,22.82
2018-11-05T03:59:45.069Z,20.03
2018-11-05T04:03:47.589Z,18.47
2018-11-05T04:07:50.042Z,20.43
2018-11-05T04:11:52.652Z,19.63
2018-11-05T04:15:55.156Z,18.20
2018-11-05T04:19:57.687Z,19.93
2018-11-05T04:24:00.178Z,18.97
2018-11-05T04:28:02.668Z,20.60
2018-11-05T04:32:05.177Z,20.47
2018-11-05T04:36:07.738Z,19.37
2018-11-05T04:40:10.944Z,22.53
2018-11-05T04:44:13.472Z,25.70
2018-11-05T04:48:15.903Z,26.20
2018-11-05T04:52:18.452Z,25.30
2018-11-05T04:56:21.053Z,21.85
2018-11-05T05:00:23.488Z,17.70
2018-11-05T05:04:26.010Z,19.47
2018-11-05T05:08:28.570Z,20.13
2018-11-05T05:12:31.205Z,19.13
2018-11-05T05:16:33.938Z,19.50
2018-11-05T05:20:36.413Z,21.83
2018-11-05T05:24:39.348Z,21.67
2018-11-05T05:28:41.867Z,20.77
2018-11-05T05:32:45.064Z,20.67
2018-11-05T05:36:47.564Z,21.37
2018-11-05T05:40:50.154Z,23.17
2018-11-05T05:44:52.575Z,23.60
2018-11-05T05:48:55.106Z,23.87
2018-11-05T05:52:57.570Z,26.52
2018-11-05T05:57:00.074Z,25.33
2018-11-05T06:01:02.666Z,26.73
2018-11-05T06:05:06.485Z,26.27
2018-11-05T06:09:09.969Z,26.77
2018-11-05T06:13:12.529Z,27.33
2018-11-05T06:17:15.266Z,26.53
2018-11-05T06:21:17.710Z,24.47
2018-11-05T06:25:20.192Z,26.37
2018-11-05T06:29:22.674Z,28.17
2018-11-05T06:33:25.127Z,24.17
2018-11-05T06:37:27.596Z,25.70
2018-11-05T06:41:30.238Z,27.93
2018-11-05T06:45:32.814Z,24.47
2018-11-05T06:49:35.156Z,26.63
2018-11-05T06:53:37.712Z,26.97
2018-11-05T06:57:40.684Z,27.83
2018-11-05T07:01:43.437Z,27.73
2018-11-05T07:05:45.985Z,27.97
2018-11-05T07:09:48.528Z,26.53
2018-11-05T07:13:51.139Z,29.00
2018-11-05T07:17:53.825Z,30.90
2018-11-05T07:21:56.459Z,30.67
2018-11-05T07:25:59.001Z,30.97
2018-11-05T07:30:01.660Z,30.30
2018-11-05T07:34:04.437Z,29.83
2018-11-05T07:38:06.776Z,29.07
2018-11-05T07:42:09.293Z,28.27
2018-11-05T07:46:11.936Z,29.23
2018-11-05T07:50:15.641Z,28.63
2018-11-05T07:54:18.076Z,29.80
2018-11-05T07:58:20.606Z,26.13
2018-11-05T08:02:23.186Z,28.83
2018-11-05T08:06:25.605Z,29.73
2018-11-05T08:10:28.169Z,27.93
2018-11-05T08:14:30.750Z,30.53
2018-11-05T08:18:33.234Z,30.97
2018-11-05T08:22:36.030Z,27.67
2018-11-05T08:26:38.579Z,27.07
2018-11-05T08:30:41.139Z,26.30
2018-11-05T08:34:43.616Z,27.63
2018-11-05T08:38:46.174Z,27.87
2018-11-05T08:42:49.575Z,24.93
2018-11-05T08:46:52.244Z,27.80
2018-11-05T08:50:54.630Z,28.07
2018-11-05T08:54:57.177Z,28.23
2018-11-05T08:58:59.794Z,27.70
2018-11-05T09:03:02.394Z,27.47
2018-11-05T09:07:05.185Z,28.10
2018-11-05T09:11:07.958Z,24.37
2018-11-05T09:15:12.215Z,25.73
2018-11-05T09:19:14.834Z,27.37
2018-11-05T09:23:17.446Z,25.87
2018-11-05T09:27:20.154Z,25.87
2018-11-05T09:31:22.871Z,29.40
2018-11-05T09:35:25.382Z,28.43
2018-11-05T09:39:27.876Z,27.60
2018-11-05T09:43:30.414Z,27.27
2018-11-05T09:47:32.840Z,25.43
2018-11-05T09:51:35.368Z,27.43
2018-11-05T09:55:38.028Z,27.00
2018-11-05T09:59:40.539Z,27.63
2018-11-05T10:03:59.790Z,26.97
2018-11-05T10:08:02.324Z,26.57
2018-11-05T10:12:04.960Z,24.97
2018-11-05T10:16:07.463Z,24.63
2018-11-05T10:20:12.914Z,23.80
2018-11-05T10:24:15.392Z,22.40
2018-11-05T10:28:17.929Z,26.93
2018-11-05T10:32:20.404Z,25.53
2018-11-05T10:36:23.188Z,28.40
2018-11-05T10:40:26.038Z,28.53
2018-11-05T10:44:28.604Z,25.40
2018-11-05T10:48:31.209Z,29.27
2018-11-05T10:52:33.760Z,26.20
2018-11-05T10:56:36.297Z,26.27
2018-11-05T11:00:44.383Z,26.23
2018-11-05T11:04:46.888Z,25.50
2018-11-05T11:08:49.323Z,26.27
2018-11-05T11:12:51.773Z,26.17
2018-11-05T11:16:54.464Z,26.87
2018-11-05T11:20:56.893Z,28.77
2018-11-05T11:24:59.344Z,27.83
2018-11-05T11:29:01.957Z,28.90
2018-11-05T11:33:04.818Z,27.77
2018-11-05T11:37:07.420Z,27.20
2018-11-05T11:41:09.939Z,27.27
2018-11-05T11:45:13.513Z,26.83
2018-11-05T11:49:16.137Z,25.70
2018-11-05T11:53:18.846Z,27.43
2018-11-05T11:57:21.174Z,25.97
2018-11-05T12:01:23.725Z,29.37
2018-11-05T12:05:26.361Z,27.87
2018-11-05T12:09:28.757Z,24.67
2018-11-05T12:13:31.423Z,27.13
2018-11-05T12:17:33.883Z,23.27
2018-11-05T12:21:36.347Z,24.17
2018-11-05T12:25:38.800Z,23.17
2018-11-05T12:29:41.309Z,23.63
2018-11-05T12:33:43.857Z,23.33
2018-11-05T12:37:47.510Z,25.43
2018-11-05T12:41:50.094Z,25.83
2018-11-05T12:45:52.729Z,23.53
2018-11-05T12:49:55.264Z,25.00
2018-11-05T12:53:57.888Z,25.33
2018-11-05T12:58:00.436Z,23.37
2018-11-05T13:02:03.186Z,24.27
2018-11-05T13:06:05.808Z,23.43
2018-11-05T13:10:11.012Z,24.87
2018-11-05T13:14:13.754Z,25.33
2018-11-05T13:18:16.155Z,25.03
2018-11-05T13:22:18.864Z,27.30
2018-11-05T13:26:21.261Z,23.77
2018-11-05T13:30:23.901Z,25.00
2018-11-05T13:34:26.647Z,23.83
2018-11-05T13:38:29.255Z,23.63
2018-11-05T13:42:32.052Z,24.63
2018-11-05T13:46:35.052Z,22.93
2018-11-05T13:50:37.417Z,23.40
2018-11-05T13:54:40.382Z,24.77
2018-11-05T13:58:43.079Z,26.53
2018-11-05T14:02:45.692Z,24.27
2018-11-05T14:06:48.332Z,23.20
2018-11-05T14:10:51.114Z,25.97
2018-11-05T14:14:53.571Z,24.37
2018-11-05T14:18:56.183Z,22.63
2018-11-05T14:22:58.842Z,24.07
2018-11-05T14:27:01.387Z,25.00
2018-11-05T14:31:04.239Z,24.50
2018-11-05T14:35:06.865Z,23.30
2018-11-05T14:39:11.828Z,23.33
2018-11-05T14:43:14.552Z,23.17
2018-11-05T14:47:16.920Z,22.53
2018-11-05T14:51:19.513Z,24.47
2018-11-05T14:55:21.944Z,23.13
2018-11-05T14:59:24.412Z,22.80
2018-11-05T15:03:26.962Z,25.00
2018-11-05T15:07:29.540Z,24.63
2018-11-05T15:11:31.965Z,25.43
2018-11-05T15:15:34.518Z,25.53
2018-11-05T15:19:37.322Z,27.10
2018-11-05T15:23:39.477Z,25.80
2018-11-05T15:27:42.128Z,26.97
2018-11-05T15:31:44.657Z,25.60
2018-11-05T15:35:47.127Z,26.97
2018-11-05T15:39:49.662Z,31.30
2018-11-05T15:43:52.151Z,29.90
2018-11-05T15:47:54.646Z,26.70
2018-11-05T15:51:57.489Z,27.57
2018-11-05T15:55:59.652Z,27.10
2018-11-05T16:00:02.396Z,28.60
2018-11-05T16:04:05.374Z,28.60
2018-11-05T16:08:07.862Z,28.43
2018-11-05T16:12:10.496Z,29.27
2018-11-05T16:16:13.202Z,36.53
2018-11-05T16:20:21.051Z,33.53
2018-11-05T16:24:23.744Z,44.70
2018-11-05T16:28:26.181Z,37.45
2018-11-05T16:32:28.688Z,32.37
2018-11-05T16:36:31.111Z,34.13
2018-11-05T16:40:33.542Z,31.53
2018-11-05T16:44:36.205Z,34.90
2018-11-05T16:48:38.762Z,29.80
2018-11-05T16:52:41.462Z,33.27
2018-11-05T16:56:43.982Z,32.07
2018-11-05T17:00:46.505Z,28.40
2018-11-05T17:04:49.027Z,28.57
2018-11-05T17:08:51.494Z,30.47
2018-11-05T17:12:54.199Z,28.57
2018-11-05T17:16:56.605Z,29.20
2018-11-05T17:20:59.095Z,27.63
2018-11-05T17:25:01.867Z,25.43
2018-11-05T17:29:04.542Z,25.77
2018-11-05T17:33:06.975Z,34.53
2018-11-05T17:37:09.405Z,33.57
2018-11-05T17:41:12.043Z,32.23
2018-11-05T17:45:15.948Z,33.87
2018-11-05T17:49:18.508Z,31.90
2018-11-05T17:53:21.146Z,29.70
2018-11-05T17:57:23.535Z,37.73
2018-11-05T18:01:26.235Z,38.17
2018-11-05T18:05:28.762Z,31.33
2018-11-05T18:09:31.309Z,32.47
2018-11-05T18:13:33.806Z,34.47
2018-11-05T18:17:36.685Z,31.27
2018-11-05T18:21:39.220Z,30.97
2018-11-05T18:25:41.716Z,34.00
2018-11-05T18:29:44.176Z,37.53
2018-11-05T18:33:46.591Z,34.63
2018-11-05T18:37:50.754Z,34.77
2018-11-05T18:41:53.244Z,36.67
2018-11-05T18:45:55.719Z,50.03
2018-11-05T18:49:58.881Z,37.50
2018-11-05T18:54:01.402Z,37.37
2018-11-05T18:58:03.854Z,34.40
2018-11-05T19:02:06.401Z,39.78
2018-11-05T19:06:10.010Z,36.97
2018-11-05T19:10:12.765Z,36.63
2018-11-05T19:14:15.763Z,38.63
2018-11-05T19:18:18.435Z,36.30
2018-11-05T19:22:20.972Z,43.87
2018-11-05T19:26:23.415Z,39.97
2018-11-05T19:30:27.102Z,39.53
2018-11-05T19:34:29.725Z,38.93
2018-11-05T19:38:32.313Z,39.67
2018-11-05T19:42:35.037Z,38.03
2018-11-05T19:46:37.894Z,39.90
2018-11-05T19:50:40.409Z,42.87
2018-11-05T19:54:43.066Z,41.53
2018-11-05T19:58:45.590Z,40.40
2018-11-05T20:02:48.782Z,37.53
2018-11-05T20:06:52.317Z,40.00
2018-11-05T20:10:54.956Z,40.93
2018-11-05T20:14:58.582Z,41.13
2018-11-05T20:19:01.137Z,43.53
2018-11-05T20:23:04.255Z,39.37
2018-11-05T20:27:06.908Z,38.70
2018-11-05T20:31:09.568Z,39.00
2018-11-05T20:35:11.985Z,40.00
2018-11-05T20:39:14.461Z,39.37
2018-11-05T20:43:16.902Z,37.90
2018-11-05T20:47:20.084Z,38.77
2018-11-05T20:51:22.531Z,40.03
2018-11-05T20:55:25.061Z,36.83
2018-11-05T20:59:28.850Z,38.17
2018-11-05T21:03:32.386Z,40.40
2018-11-05T21:07:34.994Z,38.20
2018-11-05T21:11:37.455Z,37.57
2018-11-05T21:15:40.640Z,40.30
2018-11-05T21:19:43.282Z,36.43
2018-11-05T21:23:46.370Z,36.63
2018-11-05T21:27:48.809Z,36.30
2018-11-05T21:31:51.319Z,38.40
2018-11-05T21:35:53.821Z,39.37
2018-11-05T21:39:56.293Z,40.63
2018-11-05T21:43:59.082Z,43.47
2018-11-05T21:48:02.766Z,44.00
2018-11-05T21:52:05.246Z,45.13
2018-11-05T21:56:07.762Z,42.07
2018-11-05T22:00:12.989Z,41.00
2018-11-05T22:04:15.459Z,40.33
2018-11-05T22:08:17.988Z,39.60
2018-11-05T22:12:20.433Z,44.20
2018-11-05T22:16:22.844Z,42.30
2018-11-05T22:20:26.524Z,42.20
2018-11-05T22:24:29.044Z,42.77
2018-11-05T22:28:31.515Z,44.03
2018-11-05T22:32:34.628Z,39.10
2018-11-05T22:36:37.386Z,36.47
2018-11-05T22:40:40.019Z,41.90
2018-11-05T22:44:42.538Z,46.33
2018-11-05T22:48:45.133Z,47.13
2018-11-05T22:52:48.079Z,43.67
2018-11-05T22:56:50.527Z,43.03
2018-11-05T23:00:58.857Z,43.40
2018-11-05T23:05:01.372Z,50.33
2018-11-05T23:09:05.622Z,37.87
2018-11-05T23:13:08.633Z,38.93
2018-11-05T23:17:11.250Z,39.60
2018-11-05T23:21:13.699Z,40.83
2018-11-05T23:25:16.318Z,38.10
2018-11-05T23:29:19.051Z,38.00
2018-11-05T23:33:21.651Z,44.10
2018-11-05T23:37:23.987Z,43.07
2018-11-05T23:41:26.467Z,37.23
2018-11-05T23:45:29.229Z,39.73
2018-11-05T23:49:31.847Z,36.73
2018-11-05T23:53:34.444Z,32.27
2018-11-05T23:57:36.983Z,38.23
